sensor_id;sensor_type;location;lat;lon;timestamp;P1;durP1;ratioP1;P2;durP2;ratioP2
72728;SDS011;60843;52.062;4.508;2022-10-16T00:01:38;3.17;;;0.90;;
72728;SDS011;60843;52.062;4.508;2022-10-16T00:04:04;14.63;;;1.10;;
72728;SDS011;60843;52.062;4.508;2022-10-16T00:06:30;3.35;;;1.00;;
72728;SDS011;60843;52.062;4.508;2022-10-16T00:08:56;2.38;;;0.70;;
72728;SDS011;60843;52.062;4.508;2022-10-16T00:11:26;3.30;;;0.75;;
72728;SDS011;60843;52.062;4.508;2022-10-16T00:13:59;3.50;;;0.70;;
72728;SDS011;60843;52.062;4.508;2022-10-16T00:16:25;3.15;;;0.80;;
72728;SDS011;60843;52.062;4.508;2022-10-16T00:18:52;1.73;;;0.93;;
72728;SDS011;60843;52.062;4.508;2022-10-16T00:21:19;4.57;;;0.82;;
72728;SDS011;60843;52.062;4.508;2022-10-16T00:23:53;2.97;;;0.88;;
72728;SDS011;60843;52.062;4.508;2022-10-16T00:26:20;3.17;;;0.60;;
72728;SDS011;60843;52.062;4.508;2022-10-16T00:28:47;4.78;;;0.70;;
72728;SDS011;60843;52.062;4.508;2022-10-16T00:31:14;1.55;;;0.47;;
72728;SDS011;60843;52.062;4.508;2022-10-16T00:33:40;0.98;;;0.52;;
72728;SDS011;60843;52.062;4.508;2022-10-16T00:36:06;1.98;;;0.50;;
72728;SDS011;60843;52.062;4.508;2022-10-16T00:38:34;1.70;;;0.43;;
72728;SDS011;60843;52.062;4.508;2022-10-16T00:40:59;1.13;;;0.50;;
72728;SDS011;60843;52.062;4.508;2022-10-16T00:46:27;2.15;;;0.40;;
72728;SDS011;60843;52.062;4.508;2022-10-16T00:51:30;2.38;;;0.43;;
72728;SDS011;60843;52.062;4.508;2022-10-16T00:53:59;1.17;;;0.50;;
72728;SDS011;60843;52.062;4.508;2022-10-16T00:56:25;4.57;;;0.43;;
72728;SDS011;60843;52.062;4.508;2022-10-16T00:58:50;2.78;;;0.52;;
72728;SDS011;60843;52.062;4.508;2022-10-16T01:01:16;3.15;;;0.50;;
72728;SDS011;60843;52.062;4.508;2022-10-16T01:03:45;2.22;;;0.55;;
72728;SDS011;60843;52.062;4.508;2022-10-16T01:06:19;1.45;;;0.40;;
72728;SDS011;60843;52.062;4.508;2022-10-16T01:11:41;2.10;;;0.40;;
72728;SDS011;60843;52.062;4.508;2022-10-16T01:14:22;2.83;;;0.52;;
72728;SDS011;60843;52.062;4.508;2022-10-16T01:17:15;2.55;;;0.70;;
72728;SDS011;60843;52.062;4.508;2022-10-16T01:26:07;2.00;;;0.60;;
72728;SDS011;60843;52.062;4.508;2022-10-16T01:28:06;1.83;;;0.80;;
72728;SDS011;60843;52.062;4.508;2022-10-16T01:30:34;3.30;;;0.65;;
72728;SDS011;60843;52.062;4.508;2022-10-16T01:33:43;1.48;;;0.60;;
72728;SDS011;60843;52.062;4.508;2022-10-16T01:35:55;1.35;;;0.85;;
72728;SDS011;60843;52.062;4.508;2022-10-16T01:40:51;1.30;;;0.60;;
72728;SDS011;60843;52.062;4.508;2022-10-16T01:43:19;3.88;;;1.02;;
72728;SDS011;60843;52.062;4.508;2022-10-16T01:45:47;1.77;;;0.73;;
72728;SDS011;60843;52.062;4.508;2022-10-16T01:48:14;2.95;;;0.90;;
72728;SDS011;60843;52.062;4.508;2022-10-16T01:50:43;1.73;;;0.75;;
72728;SDS011;60843;52.062;4.508;2022-10-16T01:53:10;2.38;;;0.68;;
72728;SDS011;60843;52.062;4.508;2022-10-16T01:55:38;2.88;;;0.70;;
72728;SDS011;60843;52.062;4.508;2022-10-16T01:58:06;1.35;;;0.55;;
72728;SDS011;60843;52.062;4.508;2022-10-16T02:00:33;1.73;;;0.70;;
72728;SDS011;60843;52.062;4.508;2022-10-16T02:02:59;2.53;;;0.80;;
72728;SDS011;60843;52.062;4.508;2022-10-16T02:05:28;4.65;;;0.80;;
72728;SDS011;60843;52.062;4.508;2022-10-16T02:08:18;4.50;;;0.70;;
72728;SDS011;60843;52.062;4.508;2022-10-16T02:10:44;1.40;;;0.70;;
72728;SDS011;60843;52.062;4.508;2022-10-16T02:13:11;2.45;;;0.65;;
72728;SDS011;60843;52.062;4.508;2022-10-16T02:15:41;1.50;;;0.80;;
72728;SDS011;60843;52.062;4.508;2022-10-16T02:18:07;2.20;;;0.90;;
72728;SDS011;60843;52.062;4.508;2022-10-16T02:20:34;5.03;;;0.98;;
72728;SDS011;60843;52.062;4.508;2022-10-16T02:23:05;1.55;;;0.80;;
72728;SDS011;60843;52.062;4.508;2022-10-16T02:25:37;1.45;;;0.77;;
72728;SDS011;60843;52.062;4.508;2022-10-16T02:28:10;3.28;;;0.80;;
72728;SDS011;60843;52.062;4.508;2022-10-16T02:30:43;3.38;;;0.80;;
72728;SDS011;60843;52.062;4.508;2022-10-16T02:33:11;2.45;;;1.00;;
72728;SDS011;60843;52.062;4.508;2022-10-16T02:35:41;4.75;;;1.00;;
72728;SDS011;60843;52.062;4.508;2022-10-16T02:38:08;1.60;;;0.88;;
72728;SDS011;60843;52.062;4.508;2022-10-16T02:40:34;1.52;;;1.00;;
72728;SDS011;60843;52.062;4.508;2022-10-16T02:43:00;1.65;;;0.82;;
72728;SDS011;60843;52.062;4.508;2022-10-16T02:45:29;1.98;;;1.02;;
72728;SDS011;60843;52.062;4.508;2022-10-16T02:47:54;2.28;;;0.82;;
72728;SDS011;60843;52.062;4.508;2022-10-16T02:50:20;1.92;;;0.93;;
72728;SDS011;60843;52.062;4.508;2022-10-16T02:52:45;4.10;;;0.95;;
72728;SDS011;60843;52.062;4.508;2022-10-16T02:55:11;5.55;;;0.90;;
72728;SDS011;60843;52.062;4.508;2022-10-16T02:57:36;5.13;;;0.88;;
72728;SDS011;60843;52.062;4.508;2022-10-16T03:00:03;1.73;;;0.70;;
72728;SDS011;60843;52.062;4.508;2022-10-16T03:02:30;2.55;;;0.90;;
72728;SDS011;60843;52.062;4.508;2022-10-16T03:04:55;2.47;;;0.80;;
72728;SDS011;60843;52.062;4.508;2022-10-16T03:07:21;2.47;;;0.90;;
72728;SDS011;60843;52.062;4.508;2022-10-16T03:09:46;4.40;;;0.90;;
72728;SDS011;60843;52.062;4.508;2022-10-16T03:12:11;2.67;;;0.80;;
72728;SDS011;60843;52.062;4.508;2022-10-16T03:14:37;3.10;;;1.00;;
72728;SDS011;60843;52.062;4.508;2022-10-16T03:17:02;2.67;;;0.90;;
72728;SDS011;60843;52.062;4.508;2022-10-16T03:19:28;6.20;;;1.03;;
72728;SDS011;60843;52.062;4.508;2022-10-16T03:21:53;3.00;;;1.23;;
72728;SDS011;60843;52.062;4.508;2022-10-16T03:24:19;2.33;;;0.80;;
72728;SDS011;60843;52.062;4.508;2022-10-16T03:26:44;4.80;;;0.67;;
72728;SDS011;60843;52.062;4.508;2022-10-16T03:29:09;3.75;;;1.00;;
72728;SDS011;60843;52.062;4.508;2022-10-16T03:31:35;2.17;;;1.13;;
72728;SDS011;60843;52.062;4.508;2022-10-16T03:34:00;5.30;;;0.82;;
72728;SDS011;60843;52.062;4.508;2022-10-16T03:36:26;5.18;;;1.20;;
72728;SDS011;60843;52.062;4.508;2022-10-16T03:38:51;2.58;;;0.80;;
72728;SDS011;60843;52.062;4.508;2022-10-16T03:41:17;4.45;;;0.70;;
72728;SDS011;60843;52.062;4.508;2022-10-16T03:43:42;4.97;;;0.80;;
72728;SDS011;60843;52.062;4.508;2022-10-16T03:46:08;3.40;;;0.60;;
72728;SDS011;60843;52.062;4.508;2022-10-16T03:48:33;3.63;;;1.00;;
72728;SDS011;60843;52.062;4.508;2022-10-16T03:50:58;1.10;;;0.50;;
72728;SDS011;60843;52.062;4.508;2022-10-16T03:53:24;4.07;;;0.63;;
72728;SDS011;60843;52.062;4.508;2022-10-16T03:55:50;4.15;;;0.93;;
72728;SDS011;60843;52.062;4.508;2022-10-16T03:58:15;3.03;;;0.90;;
72728;SDS011;60843;52.062;4.508;2022-10-16T04:00:42;3.88;;;0.60;;
72728;SDS011;60843;52.062;4.508;2022-10-16T04:03:08;4.60;;;0.82;;
72728;SDS011;60843;52.062;4.508;2022-10-16T04:05:33;3.40;;;0.82;;
72728;SDS011;60843;52.062;4.508;2022-10-16T04:07:59;3.60;;;0.60;;
72728;SDS011;60843;52.062;4.508;2022-10-16T04:10:24;1.95;;;0.60;;
72728;SDS011;60843;52.062;4.508;2022-10-16T04:12:50;1.90;;;0.65;;
72728;SDS011;60843;52.062;4.508;2022-10-16T04:15:15;5.50;;;0.90;;
72728;SDS011;60843;52.062;4.508;2022-10-16T04:17:41;2.70;;;0.93;;
72728;SDS011;60843;52.062;4.508;2022-10-16T04:20:06;3.33;;;0.90;;
72728;SDS011;60843;52.062;4.508;2022-10-16T04:22:32;3.65;;;0.80;;
72728;SDS011;60843;52.062;4.508;2022-10-16T04:24:57;2.70;;;0.60;;
72728;SDS011;60843;52.062;4.508;2022-10-16T04:27:23;2.45;;;0.88;;
72728;SDS011;60843;52.062;4.508;2022-10-16T04:29:49;2.80;;;0.70;;
72728;SDS011;60843;52.062;4.508;2022-10-16T04:32:14;5.45;;;0.90;;
72728;SDS011;60843;52.062;4.508;2022-10-16T04:34:40;1.58;;;0.63;;
72728;SDS011;60843;52.062;4.508;2022-10-16T04:37:06;5.85;;;0.77;;
72728;SDS011;60843;52.062;4.508;2022-10-16T04:39:31;3.40;;;1.05;;
72728;SDS011;60843;52.062;4.508;2022-10-16T04:41:57;3.13;;;0.80;;
72728;SDS011;60843;52.062;4.508;2022-10-16T04:44:22;4.05;;;0.70;;
72728;SDS011;60843;52.062;4.508;2022-10-16T04:46:49;3.05;;;1.10;;
72728;SDS011;60843;52.062;4.508;2022-10-16T04:49:15;2.28;;;0.80;;
72728;SDS011;60843;52.062;4.508;2022-10-16T04:51:41;1.98;;;0.70;;
72728;SDS011;60843;52.062;4.508;2022-10-16T04:54:06;5.13;;;1.10;;
72728;SDS011;60843;52.062;4.508;2022-10-16T04:56:32;1.73;;;0.70;;
72728;SDS011;60843;52.062;4.508;2022-10-16T04:58:57;1.50;;;0.63;;
72728;SDS011;60843;52.062;4.508;2022-10-16T05:01:23;3.28;;;0.90;;
72728;SDS011;60843;52.062;4.508;2022-10-16T05:03:48;3.47;;;0.90;;
72728;SDS011;60843;52.062;4.508;2022-10-16T05:06:13;2.08;;;1.05;;
72728;SDS011;60843;52.062;4.508;2022-10-16T05:08:39;4.05;;;0.88;;
72728;SDS011;60843;52.062;4.508;2022-10-16T05:11:04;5.60;;;1.05;;
72728;SDS011;60843;52.062;4.508;2022-10-16T05:13:30;1.67;;;0.93;;
72728;SDS011;60843;52.062;4.508;2022-10-16T05:15:55;3.72;;;1.67;;
72728;SDS011;60843;52.062;4.508;2022-10-16T05:18:22;8.73;;;3.25;;
72728;SDS011;60843;52.062;4.508;2022-10-16T05:20:47;5.28;;;1.50;;
72728;SDS011;60843;52.062;4.508;2022-10-16T05:23:13;6.13;;;1.30;;
72728;SDS011;60843;52.062;4.508;2022-10-16T05:25:38;5.60;;;1.70;;
72728;SDS011;60843;52.062;4.508;2022-10-16T05:28:03;4.13;;;1.37;;
72728;SDS011;60843;52.062;4.508;2022-10-16T05:30:29;3.47;;;1.40;;
72728;SDS011;60843;52.062;4.508;2022-10-16T05:32:54;5.97;;;1.63;;
72728;SDS011;60843;52.062;4.508;2022-10-16T05:35:20;2.90;;;1.50;;
72728;SDS011;60843;52.062;4.508;2022-10-16T05:37:46;3.30;;;1.83;;
72728;SDS011;60843;52.062;4.508;2022-10-16T05:40:12;3.00;;;1.40;;
72728;SDS011;60843;52.062;4.508;2022-10-16T05:42:38;6.47;;;1.80;;
72728;SDS011;60843;52.062;4.508;2022-10-16T05:45:08;4.70;;;1.58;;
72728;SDS011;60843;52.062;4.508;2022-10-16T05:47:34;7.53;;;1.70;;
72728;SDS011;60843;52.062;4.508;2022-10-16T05:50:00;4.07;;;1.67;;
72728;SDS011;60843;52.062;4.508;2022-10-16T05:52:26;5.95;;;1.88;;
72728;SDS011;60843;52.062;4.508;2022-10-16T05:54:52;5.22;;;1.70;;
72728;SDS011;60843;52.062;4.508;2022-10-16T05:57:17;5.57;;;1.90;;
72728;SDS011;60843;52.062;4.508;2022-10-16T05:59:43;5.87;;;1.90;;
72728;SDS011;60843;52.062;4.508;2022-10-16T06:02:14;4.23;;;1.63;;
72728;SDS011;60843;52.062;4.508;2022-10-16T06:04:40;8.13;;;1.98;;
72728;SDS011;60843;52.062;4.508;2022-10-16T06:07:05;5.45;;;2.05;;
72728;SDS011;60843;52.062;4.508;2022-10-16T06:09:31;5.28;;;1.80;;
72728;SDS011;60843;52.062;4.508;2022-10-16T06:11:56;5.38;;;2.17;;
72728;SDS011;60843;52.062;4.508;2022-10-16T06:14:22;6.10;;;1.83;;
72728;SDS011;60843;52.062;4.508;2022-10-16T06:16:47;5.30;;;1.70;;
72728;SDS011;60843;52.062;4.508;2022-10-16T06:19:13;8.57;;;2.10;;
72728;SDS011;60843;52.062;4.508;2022-10-16T06:21:38;3.53;;;1.38;;
72728;SDS011;60843;52.062;4.508;2022-10-16T06:24:04;6.03;;;1.90;;
72728;SDS011;60843;52.062;4.508;2022-10-16T06:26:29;2.90;;;1.38;;
72728;SDS011;60843;52.062;4.508;2022-10-16T06:28:56;8.35;;;1.60;;
72728;SDS011;60843;52.062;4.508;2022-10-16T06:31:23;7.10;;;1.17;;
72728;SDS011;60843;52.062;4.508;2022-10-16T06:33:52;10.35;;;3.97;;
72728;SDS011;60843;52.062;4.508;2022-10-16T06:36:19;6.93;;;1.42;;
72728;SDS011;60843;52.062;4.508;2022-10-16T06:38:45;5.03;;;1.48;;
72728;SDS011;60843;52.062;4.508;2022-10-16T06:41:14;4.35;;;1.15;;
72728;SDS011;60843;52.062;4.508;2022-10-16T06:43:42;2.53;;;1.00;;
72728;SDS011;60843;52.062;4.508;2022-10-16T06:46:09;2.65;;;1.10;;
72728;SDS011;60843;52.062;4.508;2022-10-16T06:48:36;2.92;;;1.13;;
72728;SDS011;60843;52.062;4.508;2022-10-16T06:51:03;3.67;;;1.10;;
72728;SDS011;60843;52.062;4.508;2022-10-16T06:53:30;3.33;;;1.05;;
72728;SDS011;60843;52.062;4.508;2022-10-16T06:55:57;5.57;;;1.10;;
72728;SDS011;60843;52.062;4.508;2022-10-16T06:58:23;3.17;;;1.20;;
72728;SDS011;60843;52.062;4.508;2022-10-16T07:00:49;6.93;;;1.60;;
72728;SDS011;60843;52.062;4.508;2022-10-16T07:03:20;2.03;;;1.20;;
72728;SDS011;60843;52.062;4.508;2022-10-16T07:05:46;7.15;;;1.05;;
72728;SDS011;60843;52.062;4.508;2022-10-16T07:08:11;5.18;;;1.15;;
72728;SDS011;60843;52.062;4.508;2022-10-16T07:10:37;7.72;;;1.70;;
72728;SDS011;60843;52.062;4.508;2022-10-16T07:13:02;6.43;;;1.80;;
72728;SDS011;60843;52.062;4.508;2022-10-16T07:15:28;6.25;;;1.60;;
72728;SDS011;60843;52.062;4.508;2022-10-16T07:17:53;5.25;;;1.42;;
72728;SDS011;60843;52.062;4.508;2022-10-16T07:20:19;4.07;;;1.50;;
72728;SDS011;60843;52.062;4.508;2022-10-16T07:22:44;2.67;;;1.65;;
72728;SDS011;60843;52.062;4.508;2022-10-16T07:25:10;7.38;;;1.73;;
72728;SDS011;60843;52.062;4.508;2022-10-16T07:27:36;7.97;;;2.00;;
72728;SDS011;60843;52.062;4.508;2022-10-16T07:30:02;4.72;;;1.70;;
72728;SDS011;60843;52.062;4.508;2022-10-16T07:32:28;10.00;;;2.17;;
72728;SDS011;60843;52.062;4.508;2022-10-16T07:34:53;7.35;;;1.98;;
72728;SDS011;60843;52.062;4.508;2022-10-16T07:37:20;6.95;;;1.40;;
72728;SDS011;60843;52.062;4.508;2022-10-16T07:39:46;7.25;;;1.67;;
72728;SDS011;60843;52.062;4.508;2022-10-16T07:42:12;5.32;;;1.65;;
72728;SDS011;60843;52.062;4.508;2022-10-16T07:44:37;4.95;;;1.67;;
72728;SDS011;60843;52.062;4.508;2022-10-16T07:47:02;8.65;;;2.22;;
72728;SDS011;60843;52.062;4.508;2022-10-16T07:49:28;5.18;;;1.48;;
72728;SDS011;60843;52.062;4.508;2022-10-16T07:51:53;8.53;;;1.60;;
72728;SDS011;60843;52.062;4.508;2022-10-16T07:54:18;6.60;;;1.60;;
72728;SDS011;60843;52.062;4.508;2022-10-16T07:56:44;5.97;;;1.73;;
72728;SDS011;60843;52.062;4.508;2022-10-16T07:59:09;9.47;;;1.57;;
72728;SDS011;60843;52.062;4.508;2022-10-16T08:01:35;8.15;;;1.40;;
72728;SDS011;60843;52.062;4.508;2022-10-16T08:04:01;3.78;;;1.15;;
72728;SDS011;60843;52.062;4.508;2022-10-16T08:06:26;9.48;;;1.55;;
72728;SDS011;60843;52.062;4.508;2022-10-16T08:08:51;11.30;;;1.45;;
72728;SDS011;60843;52.062;4.508;2022-10-16T08:11:17;6.95;;;1.30;;
72728;SDS011;60843;52.062;4.508;2022-10-16T08:13:43;5.43;;;1.38;;
72728;SDS011;60843;52.062;4.508;2022-10-16T08:16:08;11.15;;;1.42;;
72728;SDS011;60843;52.062;4.508;2022-10-16T08:18:38;8.98;;;1.33;;
72728;SDS011;60843;52.062;4.508;2022-10-16T08:21:05;10.80;;;1.63;;
72728;SDS011;60843;52.062;4.508;2022-10-16T08:23:31;10.90;;;1.35;;
72728;SDS011;60843;52.062;4.508;2022-10-16T08:26:02;7.45;;;1.17;;
72728;SDS011;60843;52.062;4.508;2022-10-16T08:28:29;11.80;;;1.45;;
72728;SDS011;60843;52.062;4.508;2022-10-16T08:30:54;6.38;;;1.20;;
72728;SDS011;60843;52.062;4.508;2022-10-16T08:33:21;7.03;;;1.58;;
72728;SDS011;60843;52.062;4.508;2022-10-16T08:35:50;9.23;;;1.30;;
72728;SDS011;60843;52.062;4.508;2022-10-16T08:38:17;4.22;;;1.25;;
72728;SDS011;60843;52.062;4.508;2022-10-16T08:40:43;3.92;;;1.05;;
72728;SDS011;60843;52.062;4.508;2022-10-16T08:48:43;5.35;;;1.35;;
72728;SDS011;60843;52.062;4.508;2022-10-16T08:51:13;6.32;;;1.25;;
72728;SDS011;60843;52.062;4.508;2022-10-16T08:54:01;6.80;;;1.08;;
72728;SDS011;60843;52.062;4.508;2022-10-16T08:56:28;8.07;;;1.33;;
72728;SDS011;60843;52.062;4.508;2022-10-16T08:58:54;13.18;;;1.48;;
72728;SDS011;60843;52.062;4.508;2022-10-16T09:01:21;7.35;;;1.05;;
72728;SDS011;60843;52.062;4.508;2022-10-16T09:11:48;16.70;;;1.45;;
72728;SDS011;60843;52.062;4.508;2022-10-16T09:14:23;10.00;;;1.38;;
72728;SDS011;60843;52.062;4.508;2022-10-16T09:22:15;7.88;;;1.30;;
72728;SDS011;60843;52.062;4.508;2022-10-16T09:24:41;9.15;;;1.50;;
72728;SDS011;60843;52.062;4.508;2022-10-16T09:27:14;10.98;;;1.65;;
72728;SDS011;60843;52.062;4.508;2022-10-16T09:29:39;8.85;;;1.45;;
72728;SDS011;60843;52.062;4.508;2022-10-16T09:32:13;15.52;;;1.73;;
72728;SDS011;60843;52.062;4.508;2022-10-16T09:34:45;12.85;;;1.40;;
72728;SDS011;60843;52.062;4.508;2022-10-16T09:37:14;10.75;;;1.55;;
72728;SDS011;60843;52.062;4.508;2022-10-16T09:39:49;6.20;;;1.00;;
72728;SDS011;60843;52.062;4.508;2022-10-16T09:44:57;10.80;;;1.98;;
72728;SDS011;60843;52.062;4.508;2022-10-16T09:47:23;10.52;;;1.65;;
72728;SDS011;60843;52.062;4.508;2022-10-16T09:49:54;8.52;;;1.55;;
72728;SDS011;60843;52.062;4.508;2022-10-16T09:52:22;11.23;;;1.05;;
72728;SDS011;60843;52.062;4.508;2022-10-16T09:54:51;7.43;;;1.50;;
72728;SDS011;60843;52.062;4.508;2022-10-16T09:57:21;11.95;;;1.30;;
72728;SDS011;60843;52.062;4.508;2022-10-16T09:59:51;12.82;;;2.13;;
72728;SDS011;60843;52.062;4.508;2022-10-16T10:02:22;10.48;;;1.58;;
72728;SDS011;60843;52.062;4.508;2022-10-16T10:07:32;6.45;;;1.13;;
72728;SDS011;60843;52.062;4.508;2022-10-16T10:09:59;11.55;;;1.40;;
72728;SDS011;60843;52.062;4.508;2022-10-16T10:12:29;7.70;;;1.10;;
72728;SDS011;60843;52.062;4.508;2022-10-16T10:14:58;14.48;;;1.38;;
72728;SDS011;60843;52.062;4.508;2022-10-16T10:17:28;8.80;;;1.23;;
72728;SDS011;60843;52.062;4.508;2022-10-16T10:33:54;11.43;;;1.08;;
72728;SDS011;60843;52.062;4.508;2022-10-16T10:36:43;14.02;;;1.20;;
72728;SDS011;60843;52.062;4.508;2022-10-16T10:44:53;11.68;;;1.13;;
72728;SDS011;60843;52.062;4.508;2022-10-16T10:52:46;11.77;;;1.10;;
72728;SDS011;60843;52.062;4.508;2022-10-16T11:05:56;9.48;;;1.40;;
72728;SDS011;60843;52.062;4.508;2022-10-16T11:08:41;11.18;;;1.65;;
72728;SDS011;60843;52.062;4.508;2022-10-16T11:11:17;6.55;;;0.93;;
72728;SDS011;60843;52.062;4.508;2022-10-16T11:21:16;11.00;;;1.95;;
72728;SDS011;60843;52.062;4.508;2022-10-16T11:26:34;10.13;;;1.05;;
72728;SDS011;60843;52.062;4.508;2022-10-16T11:29:01;6.68;;;1.00;;
72728;SDS011;60843;52.062;4.508;2022-10-16T11:39:24;7.35;;;1.17;;
72728;SDS011;60843;52.062;4.508;2022-10-16T11:41:53;5.25;;;0.80;;
72728;SDS011;60843;52.062;4.508;2022-10-16T11:47:25;9.13;;;1.13;;
72728;SDS011;60843;52.062;4.508;2022-10-16T11:55:49;10.43;;;1.55;;
72728;SDS011;60843;52.062;4.508;2022-10-16T11:58:35;7.47;;;0.95;;
72728;SDS011;60843;52.062;4.508;2022-10-16T12:04:39;11.38;;;1.00;;
72728;SDS011;60843;52.062;4.508;2022-10-16T12:07:13;6.57;;;0.93;;
72728;SDS011;60843;52.062;4.508;2022-10-16T12:09:41;4.65;;;0.95;;
72728;SDS011;60843;52.062;4.508;2022-10-16T12:12:27;14.32;;;1.40;;
72728;SDS011;60843;52.062;4.508;2022-10-16T12:15:15;7.13;;;1.10;;
72728;SDS011;60843;52.062;4.508;2022-10-16T12:17:47;8.13;;;1.00;;
72728;SDS011;60843;52.062;4.508;2022-10-16T12:22:42;7.07;;;1.00;;
72728;SDS011;60843;52.062;4.508;2022-10-16T12:25:35;7.80;;;1.10;;
72728;SDS011;60843;52.062;4.508;2022-10-16T12:30:35;6.35;;;0.75;;
72728;SDS011;60843;52.062;4.508;2022-10-16T12:35:45;10.63;;;1.00;;
72728;SDS011;60843;52.062;4.508;2022-10-16T12:38:21;7.00;;;1.00;;
72728;SDS011;60843;52.062;4.508;2022-10-16T12:41:00;10.93;;;1.90;;
72728;SDS011;60843;52.062;4.508;2022-10-16T12:48:36;4.57;;;0.93;;
72728;SDS011;60843;52.062;4.508;2022-10-16T12:51:12;8.18;;;1.35;;
72728;SDS011;60843;52.062;4.508;2022-10-16T13:02:18;9.98;;;1.50;;
72728;SDS011;60843;52.062;4.508;2022-10-16T13:07:46;7.50;;;1.08;;
72728;SDS011;60843;52.062;4.508;2022-10-16T13:16:04;10.90;;;1.33;;
72728;SDS011;60843;52.062;4.508;2022-10-16T13:23:34;13.57;;;1.40;;
72728;SDS011;60843;52.062;4.508;2022-10-16T13:28:34;7.32;;;0.80;;
72728;SDS011;60843;52.062;4.508;2022-10-16T13:31:01;12.57;;;1.20;;
72728;SDS011;60843;52.062;4.508;2022-10-16T13:33:33;11.23;;;1.10;;
72728;SDS011;60843;52.062;4.508;2022-10-16T13:36:04;14.63;;;1.63;;
72728;SDS011;60843;52.062;4.508;2022-10-16T13:38:31;9.32;;;1.00;;
72728;SDS011;60843;52.062;4.508;2022-10-16T13:41:05;3.83;;;0.98;;
72728;SDS011;60843;52.062;4.508;2022-10-16T13:46:05;8.93;;;0.98;;
72728;SDS011;60843;52.062;4.508;2022-10-16T13:48:34;7.95;;;1.10;;
72728;SDS011;60843;52.062;4.508;2022-10-16T13:51:00;13.98;;;1.67;;
72728;SDS011;60843;52.062;4.508;2022-10-16T13:53:33;6.30;;;1.38;;
72728;SDS011;60843;52.062;4.508;2022-10-16T13:56:00;10.23;;;1.30;;
72728;SDS011;60843;52.062;4.508;2022-10-16T14:00:54;4.73;;;0.90;;
72728;SDS011;60843;52.062;4.508;2022-10-16T14:03:21;7.38;;;0.93;;
72728;SDS011;60843;52.062;4.508;2022-10-16T14:05:48;11.00;;;1.80;;
72728;SDS011;60843;52.062;4.508;2022-10-16T14:10:40;7.07;;;1.40;;
72728;SDS011;60843;52.062;4.508;2022-10-16T14:13:06;6.70;;;1.20;;
72728;SDS011;60843;52.062;4.508;2022-10-16T14:15:32;5.78;;;1.10;;
72728;SDS011;60843;52.062;4.508;2022-10-16T14:17:59;9.52;;;0.93;;
72728;SDS011;60843;52.062;4.508;2022-10-16T14:20:29;8.73;;;1.17;;
72728;SDS011;60843;52.062;4.508;2022-10-16T14:25:30;12.40;;;1.20;;
72728;SDS011;60843;52.062;4.508;2022-10-16T14:30:24;8.52;;;1.33;;
72728;SDS011;60843;52.062;4.508;2022-10-16T14:33:00;12.38;;;1.50;;
72728;SDS011;60843;52.062;4.508;2022-10-16T14:35:39;9.85;;;1.77;;
72728;SDS011;60843;52.062;4.508;2022-10-16T14:38:05;9.20;;;1.85;;
72728;SDS011;60843;52.062;4.508;2022-10-16T14:40:45;7.80;;;1.65;;
72728;SDS011;60843;52.062;4.508;2022-10-16T14:43:17;7.68;;;1.58;;
72728;SDS011;60843;52.062;4.508;2022-10-16T14:45:49;10.40;;;1.30;;
72728;SDS011;60843;52.062;4.508;2022-10-16T14:48:16;12.02;;;1.52;;
72728;SDS011;60843;52.062;4.508;2022-10-16T14:50:42;5.95;;;1.55;;
72728;SDS011;60843;52.062;4.508;2022-10-16T14:53:11;8.27;;;1.30;;
72728;SDS011;60843;52.062;4.508;2022-10-16T14:55:37;9.57;;;1.45;;
72728;SDS011;60843;52.062;4.508;2022-10-16T14:58:04;7.00;;;1.35;;
72728;SDS011;60843;52.062;4.508;2022-10-16T15:00:29;6.63;;;1.85;;
72728;SDS011;60843;52.062;4.508;2022-10-16T15:02:55;7.85;;;1.48;;
72728;SDS011;60843;52.062;4.508;2022-10-16T15:05:25;8.53;;;1.50;;
72728;SDS011;60843;52.062;4.508;2022-10-16T15:07:52;10.32;;;1.45;;
72728;SDS011;60843;52.062;4.508;2022-10-16T15:10:21;13.18;;;1.67;;
72728;SDS011;60843;52.062;4.508;2022-10-16T15:12:48;6.80;;;1.20;;
72728;SDS011;60843;52.062;4.508;2022-10-16T15:15:15;11.85;;;1.90;;
72728;SDS011;60843;52.062;4.508;2022-10-16T15:18:03;9.18;;;1.52;;
72728;SDS011;60843;52.062;4.508;2022-10-16T15:20:30;10.90;;;1.90;;
72728;SDS011;60843;52.062;4.508;2022-10-16T15:22:59;12.45;;;1.85;;
72728;SDS011;60843;52.062;4.508;2022-10-16T15:27:51;11.47;;;1.30;;
72728;SDS011;60843;52.062;4.508;2022-10-16T15:30:16;9.55;;;1.25;;
72728;SDS011;60843;52.062;4.508;2022-10-16T15:32:42;11.57;;;1.50;;
72728;SDS011;60843;52.062;4.508;2022-10-16T15:35:10;6.10;;;1.42;;
72728;SDS011;60843;52.062;4.508;2022-10-16T15:37:36;10.35;;;1.50;;
72728;SDS011;60843;52.062;4.508;2022-10-16T15:40:01;5.28;;;1.35;;
72728;SDS011;60843;52.062;4.508;2022-10-16T15:42:26;13.07;;;1.98;;
72728;SDS011;60843;52.062;4.508;2022-10-16T15:44:52;15.43;;;2.28;;
72728;SDS011;60843;52.062;4.508;2022-10-16T15:47:17;9.20;;;1.63;;
72728;SDS011;60843;52.062;4.508;2022-10-16T15:49:43;7.32;;;1.45;;
72728;SDS011;60843;52.062;4.508;2022-10-16T15:52:09;12.73;;;1.33;;
72728;SDS011;60843;52.062;4.508;2022-10-16T15:54:35;7.70;;;1.30;;
72728;SDS011;60843;52.062;4.508;2022-10-16T15:57:00;12.90;;;1.70;;
72728;SDS011;60843;52.062;4.508;2022-10-16T15:59:25;20.33;;;10.90;;
72728;SDS011;60843;52.062;4.508;2022-10-16T16:01:51;14.50;;;7.25;;
72728;SDS011;60843;52.062;4.508;2022-10-16T16:04:16;9.18;;;3.40;;
72728;SDS011;60843;52.062;4.508;2022-10-16T16:06:43;5.13;;;1.77;;
72728;SDS011;60843;52.062;4.508;2022-10-16T16:09:14;8.25;;;1.90;;
72728;SDS011;60843;52.062;4.508;2022-10-16T16:11:44;15.25;;;2.60;;
72728;SDS011;60843;52.062;4.508;2022-10-16T16:14:10;9.73;;;2.20;;
72728;SDS011;60843;52.062;4.508;2022-10-16T16:16:37;11.38;;;1.90;;
72728;SDS011;60843;52.062;4.508;2022-10-16T16:19:04;7.93;;;2.17;;
72728;SDS011;60843;52.062;4.508;2022-10-16T16:21:31;7.60;;;2.63;;
72728;SDS011;60843;52.062;4.508;2022-10-16T16:23:56;11.13;;;2.20;;
72728;SDS011;60843;52.062;4.508;2022-10-16T16:26:23;10.95;;;2.30;;
72728;SDS011;60843;52.062;4.508;2022-10-16T16:28:56;14.40;;;2.15;;
72728;SDS011;60843;52.062;4.508;2022-10-16T16:31:26;10.55;;;2.35;;
72728;SDS011;60843;52.062;4.508;2022-10-16T16:33:52;9.98;;;2.60;;
72728;SDS011;60843;52.062;4.508;2022-10-16T16:36:17;10.68;;;2.85;;
72728;SDS011;60843;52.062;4.508;2022-10-16T16:38:44;12.93;;;2.45;;
72728;SDS011;60843;52.062;4.508;2022-10-16T16:43:39;14.20;;;3.70;;
72728;SDS011;60843;52.062;4.508;2022-10-16T16:46:04;13.32;;;4.72;;
72728;SDS011;60843;52.062;4.508;2022-10-16T16:48:30;15.13;;;3.83;;
72728;SDS011;60843;52.062;4.508;2022-10-16T16:50:56;16.13;;;3.72;;
72728;SDS011;60843;52.062;4.508;2022-10-16T16:53:22;17.70;;;3.97;;
72728;SDS011;60843;52.062;4.508;2022-10-16T16:55:48;15.35;;;3.75;;
72728;SDS011;60843;52.062;4.508;2022-10-16T16:58:13;11.63;;;3.03;;
72728;SDS011;60843;52.062;4.508;2022-10-16T17:00:45;13.45;;;2.50;;
72728;SDS011;60843;52.062;4.508;2022-10-16T17:03:11;15.15;;;2.78;;
72728;SDS011;60843;52.062;4.508;2022-10-16T17:05:37;16.17;;;3.43;;
72728;SDS011;60843;52.062;4.508;2022-10-16T17:08:02;16.00;;;3.42;;
72728;SDS011;60843;52.062;4.508;2022-10-16T17:10:31;14.30;;;3.15;;
72728;SDS011;60843;52.062;4.508;2022-10-16T17:12:57;11.50;;;2.92;;
72728;SDS011;60843;52.062;4.508;2022-10-16T17:15:23;10.80;;;2.72;;
72728;SDS011;60843;52.062;4.508;2022-10-16T17:17:48;17.60;;;3.80;;
72728;SDS011;60843;52.062;4.508;2022-10-16T17:20:14;18.00;;;3.30;;
72728;SDS011;60843;52.062;4.508;2022-10-16T17:22:40;13.50;;;3.42;;
72728;SDS011;60843;52.062;4.508;2022-10-16T17:25:06;11.70;;;3.75;;
72728;SDS011;60843;52.062;4.508;2022-10-16T17:27:32;10.43;;;3.00;;
72728;SDS011;60843;52.062;4.508;2022-10-16T17:30:00;16.15;;;3.30;;
72728;SDS011;60843;52.062;4.508;2022-10-16T17:32:25;13.45;;;3.95;;